Time;durP1;ratioP1;P1;durP2;ratioP2;P2;SDS_P1;SDS_P2;PMS_P1;PMS_P2;Temp;Humidity;BMP_temperature;BMP_pressure;BME280_temperature;BME280_humidity;BME280_pressure;Samples;Min_cycle;Max_cycle;Signal;HPM_P1;HPM_P2
2023/09/01 00:01:00;;;;;;;0.57;0.57;;;12.70;99.90;;;;;;4411392;32;20085;-74
2023/09/01 00:03:26;;;;;;;0.40;0.40;;;12.80;99.90;;;;;;4413268;32;20090;-74
2023/09/01 00:05:51;;;;;;;0.40;0.40;;;12.70;99.90;;;;;;4411110;32;20427;-74
2023/09/01 00:08:17;;;;;;;0.30;0.30;;;12.70;99.90;;;;;;4411683;32;20088;-74
2023/09/01 00:10:42;;;;;;;0.30;0.30;;;12.70;99.90;;;;;;4409665;32;20165;-74
2023/09/01 00:13:08;;;;;;;0.30;0.30;;;12.70;99.90;;;;;;4412645;32;20096;-74
2023/09/01 00:15:33;;;;;;;0.32;0.32;;;12.70;99.90;;;;;;4412733;32;20085;-73
2023/09/01 00:17:59;;;;;;;0.30;0.30;;;12.70;99.90;;;;;;4413377;32;20101;-74
2023/09/01 00:20:24;;;;;;;0.70;0.70;;;12.70;99.90;;;;;;4414259;32;20073;-74
2023/09/01 00:22:50;;;;;;;1.35;0.43;;;12.60;99.90;;;;;;4411919;32;20073;-74
2023/09/01 00:25:15;;;;;;;0.98;0.50;;;12.60;99.90;;;;;;4410709;32;20580;-74
2023/09/01 00:27:41;;;;;;;8.07;1.98;;;12.50;99.90;;;;;;4411348;32;20125;-75
2023/09/01 00:30:08;;;;;;;0.30;0.30;;;12.60;99.90;;;;;;4411781;32;20116;-74
2023/09/01 00:32:33;;;;;;;0.30;0.30;;;12.60;99.90;;;;;;4412101;32;20117;-74
2023/09/01 00:35:00;;;;;;;0.40;0.40;;;12.50;99.90;;;;;;4411342;32;20069;-74
2023/09/01 00:37:26;;;;;;;1.98;1.15;;;12.50;99.90;;;;;;4412816;32;20427;-74
2023/09/01 00:39:51;;;;;;;0.50;0.50;;;12.40;99.90;;;;;;4411809;32;20077;-74
2023/09/01 00:42:17;;;;;;;0.75;0.55;;;12.40;99.90;;;;;;4410713;32;20140;-74
2023/09/01 00:44:42;;;;;;;0.40;0.40;;;12.40;99.90;;;;;;4411548;32;20493;-74
2023/09/01 00:47:08;;;;;;;0.30;0.30;;;12.40;99.90;;;;;;4410746;32;20073;-74
2023/09/01 00:49:36;;;;;;;0.40;0.40;;;12.40;99.90;;;;;;4415078;32;20303;-74
2023/09/01 00:52:02;;;;;;;0.35;0.35;;;12.40;99.90;;;;;;4419144;32;20093;-74
2023/09/01 00:54:28;;;;;;;0.22;0.22;;;12.30;99.90;;;;;;4418395;32;20135;-74
2023/09/01 00:56:54;;;;;;;0.40;0.40;;;12.40;99.90;;;;;;4421268;32;20081;-73
2023/09/01 00:59:20;;;;;;;0.55;0.40;;;12.30;99.90;;;;;;4421660;32;20119;-74
2023/09/01 01:01:46;;;;;;;0.30;0.30;;;12.30;99.90;;;;;;4416361;32;20568;-74
2023/09/01 01:04:14;;;;;;;0.30;0.30;;;12.30;99.90;;;;;;4416776;32;21816;-74
2023/09/01 01:07:06;;;;;;;0.40;0.40;;;12.30;99.90;;;;;;4420848;32;20123;-73
2023/09/01 01:09:45;;;;;;;0.40;0.40;;;12.30;99.90;;;;;;4406523;32;20089;-74
2023/09/01 01:12:31;;;;;;;0.60;0.60;;;12.30;99.90;;;;;;4417741;32;20090;-73
2023/09/01 01:14:58;;;;;;;0.25;0.25;;;12.30;99.90;;;;;;4407616;32;20465;-74
2023/09/01 01:17:25;;;;;;;0.30;0.30;;;12.20;99.90;;;;;;4421367;32;20070;-73
2023/09/01 01:19:54;;;;;;;7.20;0.80;;;12.20;99.90;;;;;;4423371;32;20110;-74
2023/09/01 01:22:31;;;;;;;0.30;0.30;;;12.20;99.90;;;;;;4423578;32;20086;-73
2023/09/01 01:24:57;;;;;;;0.40;0.40;;;12.20;99.90;;;;;;4422394;32;20077;-74
2023/09/01 01:27:23;;;;;;;0.30;0.30;;;12.10;99.90;;;;;;4420632;32;20183;-73
2023/09/01 01:29:48;;;;;;;0.30;0.30;;;12.10;99.90;;;;;;4423747;32;20506;-72
2023/09/01 01:32:14;;;;;;;0.40;0.40;;;12.10;99.90;;;;;;4423414;32;20136;-74
2023/09/01 01:34:48;;;;;;;0.40;0.40;;;12.10;99.90;;;;;;4419022;32;20088;-73
2023/09/01 01:37:33;;;;;;;0.50;0.50;;;12.00;99.90;;;;;;4423476;32;20118;-73
2023/09/01 01:40:01;;;;;;;0.35;0.35;;;12.10;99.90;;;;;;4422425;32;20110;-73
2023/09/01 01:42:29;;;;;;;0.30;0.30;;;12.00;99.90;;;;;;4423261;32;20069;-73
2023/09/01 01:44:57;;;;;;;0.40;0.40;;;12.00;99.90;;;;;;4421798;32;20057;-74
2023/09/01 01:47:23;;;;;;;0.45;0.45;;;12.00;99.90;;;;;;4423383;32;20101;-74
2023/09/01 01:49:49;;;;;;;0.40;0.40;;;12.10;99.90;;;;;;4419957;32;20089;-73
2023/09/01 01:52:15;;;;;;;0.47;0.47;;;12.00;99.90;;;;;;4421927;32;21287;-74
2023/09/01 01:54:40;;;;;;;0.40;0.40;;;12.00;99.90;;;;;;4421345;32;20589;-73
2023/09/01 01:57:10;;;;;;;1.12;0.90;;;12.00;99.90;;;;;;4421733;32;20084;-74
2023/09/01 01:59:36;;;;;;;0.30;0.30;;;12.00;99.90;;;;;;4421102;32;20569;-74
2023/09/01 02:02:05;;;;;;;0.57;0.57;;;11.90;99.90;;;;;;4421862;32;20069;-74
2023/09/01 02:04:31;;;;;;;0.30;0.30;;;11.80;99.90;;;;;;4425682;32;20077;-72
2023/09/01 02:06:56;;;;;;;0.30;0.30;;;11.70;99.90;;;;;;4424564;32;20525;-74
2023/09/01 02:09:22;;;;;;;0.35;0.35;;;11.60;99.90;;;;;;4422775;32;20489;-74
2023/09/01 02:11:47;;;;;;;0.88;0.55;;;11.60;99.90;;;;;;4421235;32;20128;-74
2023/09/01 02:14:13;;;;;;;0.20;0.20;;;11.60;99.90;;;;;;4421653;32;20557;-74
2023/09/01 02:16:39;;;;;;;0.30;0.30;;;11.60;99.90;;;;;;4421028;32;20076;-74
2023/09/01 02:19:04;;;;;;;16.67;0.62;;;11.60;99.90;;;;;;4421501;32;20097;-74
2023/09/01 02:21:30;;;;;;;0.52;0.52;;;11.70;99.90;;;;;;4422509;32;20541;-74
2023/09/01 02:23:55;;;;;;;0.45;0.45;;;11.70;99.90;;;;;;4420098;32;20148;-74
2023/09/01 02:26:22;;;;;;;0.30;0.30;;;11.70;99.90;;;;;;4420971;32;20096;-74
2023/09/01 02:28:49;;;;;;;0.80;0.50;;;11.80;99.90;;;;;;4421295;32;20069;-73
2023/09/01 02:31:15;;;;;;;4.10;1.87;;;11.70;99.90;;;;;;4421021;32;20442;-74
2023/09/01 02:33:40;;;;;;;0.40;0.40;;;11.60;99.90;;;;;;4420927;32;20077;-74
2023/09/01 02:36:28;;;;;;;0.30;0.30;;;11.60;99.90;;;;;;4420809;32;20068;-74
2023/09/01 02:38:54;;;;;;;0.60;0.60;;;11.60;99.90;;;;;;4409368;32;20066;-74
2023/09/01 02:41:24;;;;;;;0.30;0.30;;;11.60;99.90;;;;;;4417873;32;20097;-75
2023/09/01 02:43:50;;;;;;;0.68;0.60;;;11.60;99.90;;;;;;4422535;32;20065;-74
2023/09/01 02:46:15;;;;;;;0.47;0.47;;;11.60;99.90;;;;;;4419560;32;20073;-74
2023/09/01 02:48:41;;;;;;;0.40;0.40;;;11.70;99.90;;;;;;4419377;32;20082;-74
2023/09/01 02:51:07;;;;;;;0.25;0.25;;;11.70;99.90;;;;;;4418646;32;20116;-74
2023/09/01 02:53:33;;;;;;;1.55;0.88;;;11.70;99.90;;;;;;4419927;32;20065;-74
2023/09/01 02:55:58;;;;;;;0.40;0.40;;;11.70;99.90;;;;;;4421924;32;20502;-74
2023/09/01 02:58:24;;;;;;;2.40;1.85;;;11.60;99.90;;;;;;4422342;32;20151;-74
2023/09/01 03:00:50;;;;;;;0.47;0.47;;;11.60;99.90;;;;;;4419710;32;20480;-74
2023/09/01 03:03:15;;;;;;;0.50;0.50;;;11.50;99.90;;;;;;4419953;32;20060;-75
2023/09/01 03:05:41;;;;;;;0.37;0.37;;;11.50;99.90;;;;;;4420874;32;20367;-74
2023/09/01 03:08:06;;;;;;;0.32;0.32;;;11.50;99.90;;;;;;4419171;32;20086;-74
2023/09/01 03:10:32;;;;;;;0.40;0.40;;;11.40;99.90;;;;;;4421073;32;20109;-74
2023/09/01 03:12:58;;;;;;;0.80;0.50;;;11.50;99.90;;;;;;4419236;32;20433;-74
2023/09/01 03:15:23;;;;;;;0.40;0.40;;;11.40;99.90;;;;;;4420856;32;20080;-74
2023/09/01 03:17:48;;;;;;;0.32;0.32;;;11.40;99.90;;;;;;4419925;32;20065;-74
2023/09/01 03:20:15;;;;;;;0.40;0.40;;;11.40;99.90;;;;;;4419654;32;20120;-74
2023/09/01 03:22:41;;;;;;;0.37;0.37;;;11.40;99.90;;;;;;4419973;32;20077;-75
2023/09/01 03:25:09;;;;;;;0.30;0.30;;;11.40;99.90;;;;;;4421381;32;20097;-74
2023/09/01 03:27:36;;;;;;;0.40;0.40;;;11.40;99.90;;;;;;4420318;32;20053;-74
2023/09/01 03:30:02;;;;;;;0.30;0.30;;;11.50;99.90;;;;;;4423163;32;20611;-74
2023/09/01 03:32:29;;;;;;;0.40;0.40;;;11.50;99.90;;;;;;4420954;32;20076;-74
2023/09/01 03:34:55;;;;;;;0.40;0.40;;;11.50;99.90;;;;;;4422360;32;20508;-74
2023/09/01 03:37:22;;;;;;;0.45;0.45;;;11.40;99.90;;;;;;4418159;32;20086;-74
2023/09/01 03:39:47;;;;;;;0.57;0.50;;;11.40;99.90;;;;;;4419912;32;20085;-75
2023/09/01 03:42:13;;;;;;;0.70;0.70;;;11.40;99.90;;;;;;4420732;32;20136;-74
2023/09/01 03:44:39;;;;;;;1.75;0.50;;;11.50;99.90;;;;;;4422156;32;20085;-74
2023/09/01 03:47:05;;;;;;;0.40;0.40;;;11.50;99.90;;;;;;4420366;32;20171;-75
2023/09/01 03:49:30;;;;;;;0.32;0.32;;;11.60;99.90;;;;;;4421002;32;20090;-74
2023/09/01 03:51:56;;;;;;;0.40;0.40;;;11.60;99.90;;;;;;4418766;32;20088;-73
2023/09/01 03:54:21;;;;;;;0.80;0.60;;;11.50;99.90;;;;;;4420400;32;20073;-74
2023/09/01 03:56:47;;;;;;;0.40;0.40;;;11.40;99.90;;;;;;4421450;32;20065;-74
2023/09/01 03:59:13;;;;;;;0.50;0.50;;;11.40;99.90;;;;;;4419648;32;20140;-74
2023/09/01 04:01:38;;;;;;;0.60;0.60;;;11.30;99.90;;;;;;4421708;32;20069;-74
2023/09/01 04:04:06;;;;;;;0.57;0.57;;;11.40;99.90;;;;;;4419861;32;20505;-74
2023/09/01 04:06:31;;;;;;;0.35;0.35;;;11.40;99.90;;;;;;4420209;32;21107;-74
2023/09/01 04:08:57;;;;;;;0.40;0.40;;;11.40;99.90;;;;;;4420470;32;20077;-74
2023/09/01 04:11:23;;;;;;;0.60;0.60;;;11.40;99.90;;;;;;4420493;32;20088;-74
2023/09/01 04:13:48;;;;;;;0.40;0.40;;;11.40;99.90;;;;;;4420658;32;20130;-75
2023/09/01 04:16:14;;;;;;;0.28;0.28;;;11.40;99.90;;;;;;4419701;32;20134;-73
2023/09/01 04:18:39;;;;;;;0.50;0.50;;;11.50;99.90;;;;;;4420841;32;20061;-72
2023/09/01 04:21:05;;;;;;;0.30;0.30;;;11.40;99.90;;;;;;4417547;32;21456;-73
2023/09/01 04:23:31;;;;;;;0.43;0.43;;;11.20;99.90;;;;;;4419146;32;20073;-73
2023/09/01 04:25:57;;;;;;;0.30;0.30;;;11.10;99.90;;;;;;4420193;32;20102;-74
2023/09/01 04:28:22;;;;;;;0.30;0.30;;;11.20;99.90;;;;;;4419746;32;20407;-74
2023/09/01 04:30:48;;;;;;;0.47;0.47;;;11.30;99.90;;;;;;4420996;32;20066;-74
2023/09/01 04:33:14;;;;;;;0.30;0.30;;;11.30;99.90;;;;;;4417732;32;20101;-74
2023/09/01 04:35:39;;;;;;;0.20;0.20;;;11.30;99.90;;;;;;4418499;32;20127;-73
2023/09/01 04:38:05;;;;;;;2.37;0.37;;;11.40;99.90;;;;;;4420384;32;20480;-74
2023/09/01 04:40:31;;;;;;;0.50;0.50;;;11.40;99.90;;;;;;4418434;32;20441;-74
2023/09/01 04:42:56;;;;;;;0.80;0.50;;;11.30;99.90;;;;;;4418801;32;20081;-75
2023/09/01 04:45:23;;;;;;;0.45;0.45;;;11.20;99.90;;;;;;4420087;32;20089;-74
2023/09/01 04:47:50;;;;;;;0.32;0.32;;;11.20;99.90;;;;;;4420135;32;20706;-74
2023/09/01 04:50:16;;;;;;;0.25;0.25;;;11.20;99.90;;;;;;4417778;32;20077;-74
2023/09/01 04:52:41;;;;;;;2.53;1.25;;;11.20;99.90;;;;;;4419776;32;20539;-74
2023/09/01 04:55:08;;;;;;;0.47;0.47;;;11.30;99.90;;;;;;4419673;32;20074;-74
2023/09/01 04:57:34;;;;;;;0.30;0.30;;;11.20;99.90;;;;;;4418847;32;20093;-74
2023/09/01 04:59:59;;;;;;;1.23;0.93;;;11.30;99.90;;;;;;4416332;32;20085;-74
2023/09/01 05:02:24;;;;;;;0.57;0.57;;;11.40;99.90;;;;;;4413898;32;20156;-74
2023/09/01 05:04:51;;;;;;;0.40;0.40;;;11.50;99.90;;;;;;4417118;32;20551;-74
2023/09/01 05:07:16;;;;;;;0.30;0.30;;;11.50;99.90;;;;;;4417414;32;20414;-74
2023/09/01 05:09:42;;;;;;;0.93;0.60;;;11.40;99.90;;;;;;4417191;32;20085;-74
2023/09/01 05:12:08;;;;;;;0.40;0.40;;;11.40;99.90;;;;;;4417628;32;20095;-74
2023/09/01 05:14:33;;;;;;;0.47;0.47;;;11.50;99.90;;;;;;4418973;32;20159;-74
2023/09/01 05:17:00;;;;;;;0.40;0.40;;;11.50;99.90;;;;;;4409152;32;20677;-74
2023/09/01 05:19:25;;;;;;;0.28;0.28;;;11.50;99.90;;;;;;4409292;32;20494;-74
2023/09/01 05:21:51;;;;;;;0.30;0.30;;;11.50;99.90;;;;;;4419052;32;20124;-74
2023/09/01 05:24:16;;;;;;;0.37;0.37;;;11.50;99.90;;;;;;4420729;32;20434;-74
2023/09/01 05:26:42;;;;;;;0.28;0.28;;;11.50;99.90;;;;;;4408530;32;21257;-73
2023/09/01 05:29:09;;;;;;;0.60;0.60;;;11.60;99.90;;;;;;4411622;32;20078;-73
2023/09/01 05:31:35;;;;;;;0.30;0.30;;;11.60;99.90;;;;;;4387279;32;20440;-73
2023/09/01 05:34:01;;;;;;;0.32;0.32;;;11.70;99.90;;;;;;4411008;32;20093;-73
2023/09/01 05:36:26;;;;;;;0.95;0.90;;;11.70;99.90;;;;;;4413897;32;20201;-74
2023/09/01 05:38:52;;;;;;;1.50;0.62;;;11.80;99.90;;;;;;4408593;32;20560;-74
2023/09/01 05:41:20;;;;;;;0.40;0.40;;;11.80;99.90;;;;;;4413086;32;20118;-74
2023/09/01 05:43:46;;;;;;;0.40;0.40;;;11.90;99.90;;;;;;4401883;32;20152;-75
2023/09/01 05:46:11;;;;;;;0.30;0.30;;;12.00;99.90;;;;;;4404587;32;20105;-74
2023/09/01 05:48:37;;;;;;;0.60;0.60;;;12.00;99.90;;;;;;4404915;32;20891;-72
2023/09/01 05:51:03;;;;;;;0.75;0.62;;;12.00;99.90;;;;;;4401636;32;20081;-73
2023/09/01 05:53:28;;;;;;;0.43;0.43;;;12.10;99.90;;;;;;4398412;32;20081;-74
2023/09/01 05:55:54;;;;;;;0.40;0.40;;;12.10;99.90;;;;;;4382478;32;20109;-73
2023/09/01 05:58:20;;;;;;;0.50;0.50;;;12.20;99.90;;;;;;4370197;32;20098;-73
2023/09/01 06:00:45;;;;;;;0.68;0.68;;;12.20;99.90;;;;;;4360009;32;20117;-73
2023/09/01 06:03:11;;;;;;;0.40;0.40;;;12.30;99.90;;;;;;4364341;32;20081;-73
2023/09/01 06:05:36;;;;;;;0.55;0.55;;;12.30;99.90;;;;;;4371125;32;20523;-74
2023/09/01 06:08:02;;;;;;;0.80;0.80;;;12.40;99.90;;;;;;4373378;32;21399;-73
2023/09/01 06:10:28;;;;;;;0.30;0.30;;;12.50;99.90;;;;;;4374410;32;20097;-73
2023/09/01 06:12:54;;;;;;;0.35;0.35;;;12.50;99.90;;;;;;4377842;32;20216;-73
2023/09/01 06:15:21;;;;;;;0.30;0.30;;;12.60;99.90;;;;;;4380708;32;20248;-73
2023/09/01 06:17:46;;;;;;;0.50;0.50;;;12.60;99.90;;;;;;4378459;32;20116;-73
2023/09/01 06:20:12;;;;;;;0.30;0.30;;;12.70;99.90;;;;;;4378854;32;20381;-73
2023/09/01 06:22:38;;;;;;;0.30;0.30;;;12.70;99.90;;;;;;4381443;32;20073;-73
2023/09/01 06:25:04;;;;;;;3.12;0.57;;;12.70;99.90;;;;;;4381054;32;20426;-72
2023/09/01 06:27:29;;;;;;;0.40;0.40;;;12.80;99.90;;;;;;4386885;32;20081;-73
2023/09/01 06:29:56;;;;;;;0.40;0.40;;;12.80;99.90;;;;;;4387265;32;20498;-72
2023/09/01 06:32:23;;;;;;;0.60;0.60;;;12.80;99.90;;;;;;4382124;32;20540;-73
2023/09/01 06:34:49;;;;;;;0.50;0.50;;;12.90;99.90;;;;;;4389450;32;20097;-74
2023/09/01 06:37:14;;;;;;;0.40;0.40;;;13.00;99.90;;;;;;4380726;32;20121;-72
2023/09/01 06:39:40;;;;;;;0.40;0.40;;;13.00;99.90;;;;;;4381690;32;20104;-72
2023/09/01 06:42:06;;;;;;;0.50;0.50;;;13.20;99.90;;;;;;4381680;32;20090;-73
2023/09/01 06:44:32;;;;;;;0.60;0.60;;;13.30;99.90;;;;;;4393171;32;20114;-72
2023/09/01 06:46:57;;;;;;;0.40;0.40;;;13.30;99.90;;;;;;4389539;32;21946;-74
2023/09/01 06:49:23;;;;;;;0.70;0.70;;;13.40;99.90;;;;;;4386458;32;20086;-73
2023/09/01 06:51:48;;;;;;;0.40;0.40;;;13.40;99.90;;;;;;4392076;32;20081;-73
2023/09/01 06:54:14;;;;;;;0.40;0.40;;;13.50;99.90;;;;;;4379736;32;20081;-74
2023/09/01 06:56:39;;;;;;;0.80;0.80;;;13.60;99.90;;;;;;4378311;32;20671;-74
2023/09/01 06:59:05;;;;;;;0.70;0.70;;;13.60;99.90;;;;;;4389036;32;20100;-74
2023/09/01 07:01:30;;;;;;;0.90;0.70;;;13.70;99.90;;;;;;4381020;32;20097;-75
2023/09/01 07:03:56;;;;;;;0.50;0.50;;;13.70;99.90;;;;;;4375565;32;20144;-74
2023/09/01 07:06:21;;;;;;;0.40;0.40;;;13.80;99.90;;;;;;4385656;32;20072;-74
2023/09/01 07:08:47;;;;;;;5.37;0.55;;;13.90;99.90;;;;;;4388003;32;21758;-75
2023/09/01 07:11:14;;;;;;;0.40;0.40;;;14.00;99.90;;;;;;4391558;32;20590;-74
2023/09/01 07:13:41;;;;;;;0.40;0.40;;;14.10;99.90;;;;;;4385684;32;20110;-74
2023/09/01 07:16:06;;;;;;;2.12;0.68;;;14.10;99.90;;;;;;4385825;32;20548;-75
2023/09/01 07:18:32;;;;;;;1.00;0.88;;;14.20;99.90;;;;;;4386246;32;20100;-75
2023/09/01 07:21:00;;;;;;;0.40;0.40;;;14.30;99.90;;;;;;4387519;32;20081;-75
2023/09/01 07:23:26;;;;;;;1.23;0.85;;;14.40;99.90;;;;;;4391934;32;20148;-74
2023/09/01 07:25:53;;;;;;;0.73;0.70;;;14.40;99.90;;;;;;4381932;32;20684;-74
2023/09/01 07:28:18;;;;;;;0.40;0.40;;;14.50;99.90;;;;;;4387421;32;20844;-74
2023/09/01 07:30:44;;;;;;;0.40;0.40;;;14.50;99.90;;;;;;4376612;32;20107;-74
2023/09/01 07:33:10;;;;;;;0.37;0.37;;;14.60;99.90;;;;;;4385565;32;20622;-73
2023/09/01 07:35:35;;;;;;;0.40;0.40;;;14.70;99.90;;;;;;4377698;32;20278;-74
2023/09/01 07:38:03;;;;;;;0.98;0.60;;;14.70;99.90;;;;;;4388779;32;21298;-74
2023/09/01 07:40:32;;;;;;;0.55;0.50;;;14.80;99.90;;;;;;4375914;32;20115;-73
2023/09/01 07:42:58;;;;;;;0.50;0.50;;;14.80;99.90;;;;;;4384467;32;20089;-74
2023/09/01 07:45:24;;;;;;;0.52;0.52;;;14.90;99.90;;;;;;4387433;32;20147;-74
2023/09/01 07:47:49;;;;;;;2.75;0.62;;;14.90;99.90;;;;;;4382182;32;20093;-73
2023/09/01 07:50:15;;;;;;;0.50;0.50;;;14.90;99.90;;;;;;4379131;32;20262;-73
2023/09/01 07:52:40;;;;;;;0.73;0.50;;;15.00;99.90;;;;;;4376912;32;20097;-73
2023/09/01 07:55:06;;;;;;;0.43;0.43;;;15.10;99.90;;;;;;4370313;32;20109;-73
2023/09/01 07:57:32;;;;;;;0.43;0.43;;;15.30;99.90;;;;;;4383808;32;20760;-72
2023/09/01 07:59:58;;;;;;;2.87;1.27;;;15.30;99.90;;;;;;4399098;32;20093;-73
2023/09/01 08:02:23;;;;;;;0.40;0.40;;;15.50;99.90;;;;;;4400450;32;20307;-73
2023/09/01 08:04:49;;;;;;;0.50;0.50;;;15.60;99.90;;;;;;4394975;32;20093;-73
2023/09/01 08:07:14;;;;;;;0.50;0.50;;;15.80;99.90;;;;;;4392353;32;20081;-73
2023/09/01 08:09:41;;;;;;;0.70;0.70;;;15.80;99.90;;;;;;4392209;32;20498;-72
2023/09/01 08:12:07;;;;;;;0.82;0.82;;;15.80;99.90;;;;;;4388355;32;20699;-72
2023/09/01 08:14:32;;;;;;;0.50;0.50;;;15.90;99.90;;;;;;4391963;32;21992;-73
2023/09/01 08:16:59;;;;;;;0.30;0.30;;;16.00;99.90;;;;;;4391440;32;21660;-73
2023/09/01 08:19:24;;;;;;;0.52;0.52;;;16.10;99.90;;;;;;4395283;32;20070;-73
2023/09/01 08:21:50;;;;;;;0.50;0.50;;;16.20;99.90;;;;;;4394760;32;20170;-73
2023/09/01 08:24:16;;;;;;;1.55;0.50;;;16.30;99.90;;;;;;4388263;32;20085;-73
2023/09/01 08:26:41;;;;;;;0.50;0.50;;;16.40;99.90;;;;;;4389910;32;20847;-73
2023/09/01 08:29:07;;;;;;;0.40;0.40;;;16.60;99.90;;;;;;4393361;32;20101;-73
2023/09/01 08:31:33;;;;;;;0.50;0.50;;;16.70;99.90;;;;;;4390819;32;20089;-76
2023/09/01 08:33:58;;;;;;;2.17;0.70;;;16.70;99.90;;;;;;4391660;32;20102;-75
2023/09/01 08:36:26;;;;;;;0.93;0.52;;;16.80;99.90;;;;;;4379565;32;20129;-75
2023/09/01 08:38:51;;;;;;;0.40;0.40;;;16.90;99.90;;;;;;4388421;32;20868;-75
2023/09/01 08:41:17;;;;;;;0.57;0.57;;;17.00;99.90;;;;;;4382034;32;20318;-75
2023/09/01 08:43:44;;;;;;;0.52;0.52;;;17.00;99.90;;;;;;4388768;32;20431;-76
2023/09/01 08:46:15;;;;;;;0.35;0.35;;;17.10;99.90;;;;;;4394384;32;20187;-74
2023/09/01 08:48:41;;;;;;;0.50;0.50;;;17.20;99.90;;;;;;4387360;32;20129;-75
2023/09/01 08:51:08;;;;;;;0.57;0.57;;;17.30;99.90;;;;;;4388724;32;20085;-75
2023/09/01 08:53:35;;;;;;;0.35;0.35;;;17.40;99.90;;;;;;4394494;32;20540;-75
2023/09/01 08:56:01;;;;;;;0.85;0.68;;;17.40;99.90;;;;;;4392921;32;20808;-75
2023/09/01 08:58:26;;;;;;;0.52;0.45;;;17.50;99.90;;;;;;4402254;32;20180;-74
2023/09/01 09:00:52;;;;;;;3.65;1.05;;;17.60;99.90;;;;;;4405768;32;20177;-75
2023/09/01 09:03:18;;;;;;;0.50;0.50;;;17.70;99.90;;;;;;4396499;32;20081;-74
2023/09/01 09:05:44;;;;;;;0.40;0.40;;;17.80;99.90;;;;;;4382542;32;20191;-74
2023/09/01 09:08:10;;;;;;;2.08;1.25;;;18.10;99.90;;;;;;4382564;32;20347;-74
2023/09/01 09:10:39;;;;;;;0.40;0.40;;;18.10;99.90;;;;;;4384409;32;20181;-73
2023/09/01 09:13:23;;;;;;;1.10;0.90;;;18.20;99.90;;;;;;4382876;32;20625;-76
2023/09/01 09:16:10;;;;;;;0.30;0.30;;;18.30;99.90;;;;;;4374263;32;20162;-74
2023/09/01 09:18:38;;;;;;;0.40;0.40;;;18.40;99.90;;;;;;4377341;32;20503;-74
2023/09/01 09:21:03;;;;;;;1.00;0.65;;;18.60;99.90;;;;;;4373229;32;20572;-73
2023/09/01 09:23:43;;;;;;;0.68;0.68;;;18.70;99.90;;;;;;4358085;32;20114;-75
2023/09/01 09:26:09;;;;;;;0.40;0.40;;;19.00;99.90;;;;;;4364616;32;20129;-73
2023/09/01 09:28:35;;;;;;;0.62;0.62;;;19.00;99.90;;;;;;4377695;32;20182;-74
2023/09/01 09:31:00;;;;;;;17.10;1.08;;;19.00;99.90;;;;;;4366358;32;21206;-74
2023/09/01 09:33:28;;;;;;;0.43;0.43;;;19.10;99.90;;;;;;4380643;32;20097;-73
2023/09/01 09:35:54;;;;;;;0.32;0.32;;;19.40;99.90;;;;;;4374967;32;20683;-74
2023/09/01 09:38:19;;;;;;;0.45;0.45;;;19.40;99.90;;;;;;4381653;32;20200;-74
2023/09/01 09:41:01;;;;;;;0.30;0.30;;;19.40;99.90;;;;;;4393915;32;20144;-73
2023/09/01 09:43:27;;;;;;;0.25;0.25;;;19.70;99.90;;;;;;4388089;32;20117;-73
2023/09/01 09:45:53;;;;;;;0.30;0.30;;;19.90;99.90;;;;;;4385317;32;20101;-73
2023/09/01 09:48:19;;;;;;;0.20;0.20;;;20.00;99.90;;;;;;4378383;32;20105;-74
2023/09/01 09:50:50;;;;;;;0.40;0.40;;;20.10;99.90;;;;;;4381795;32;20081;-74
2023/09/01 09:53:22;;;;;;;0.28;0.28;;;20.10;99.90;;;;;;4381346;32;20277;-72
2023/09/01 09:55:49;;;;;;;0.50;0.40;;;20.30;99.90;;;;;;4388550;32;20228;-74
2023/09/01 09:58:17;;;;;;;0.50;0.50;;;20.20;99.90;;;;;;4391673;32;20085;-73
2023/09/01 10:00:51;;;;;;;0.30;0.30;;;20.00;99.90;;;;;;4390379;32;20977;-76
2023/09/01 10:03:20;;;;;;;0.40;0.40;;;20.10;99.90;;;;;;4388403;32;20094;-77
2023/09/01 10:05:47;;;;;;;0.70;0.55;;;20.20;99.90;;;;;;4393636;32;20077;-76
2023/09/01 10:08:14;;;;;;;0.62;0.62;;;20.20;99.90;;;;;;4388952;32;20571;-76
2023/09/01 10:10:41;;;;;;;0.20;0.20;;;20.00;99.90;;;;;;4399143;32;20176;-76
2023/09/01 10:13:07;;;;;;;0.43;0.43;;;20.00;99.90;;;;;;4394761;32;20089;-76
2023/09/01 10:15:35;;;;;;;7.22;0.70;;;20.00;99.90;;;;;;4381424;32;20639;-76
2023/09/01 10:18:03;;;;;;;0.70;0.52;;;20.10;99.90;;;;;;4379427;32;21618;-75
2023/09/01 10:20:31;;;;;;;0.50;0.50;;;20.00;99.90;;;;;;4395306;32;20149;-76
2023/09/01 10:22:58;;;;;;;0.30;0.30;;;20.00;99.90;;;;;;4391111;32;20524;-75
2023/09/01 10:25:25;;;;;;;0.70;0.70;;;19.90;99.90;;;;;;4388486;32;20112;-75
2023/09/01 10:28:15;;;;;;;0.37;0.37;;;19.80;99.90;;;;;;4393107;32;20101;-76
2023/09/01 10:30:43;;;;;;;0.30;0.30;;;19.70;99.90;;;;;;4411142;32;20092;-76
2023/09/01 10:33:10;;;;;;;0.37;0.37;;;20.00;99.90;;;;;;4411112;32;20432;-75
2023/09/01 10:35:40;;;;;;;4.68;0.60;;;20.20;99.90;;;;;;4406982;32;20552;-75
2023/09/01 10:38:11;;;;;;;0.30;0.30;;;20.30;99.90;;;;;;4391943;32;20578;-75
2023/09/01 10:40:47;;;;;;;0.43;0.43;;;20.30;99.90;;;;;;4411411;32;20086;-75
2023/09/01 10:43:33;;;;;;;0.37;0.37;;;20.30;99.90;;;;;;4406305;32;20173;-75
2023/09/01 10:46:16;;;;;;;0.37;0.37;;;20.20;99.90;;;;;;4388133;32;20117;-74
2023/09/01 10:48:52;;;;;;;0.30;0.30;;;20.20;99.90;;;;;;4385235;32;20077;-74
2023/09/01 10:51:20;;;;;;;0.35;0.35;;;20.20;99.90;;;;;;4396476;32;20088;-74
2023/09/01 10:53:46;;;;;;;0.52;0.50;;;20.30;99.90;;;;;;4389359;32;20138;-75
2023/09/01 10:56:14;;;;;;;0.20;0.20;;;20.30;99.90;;;;;;4383643;32;20077;-74
2023/09/01 10:58:45;;;;;;;2.83;0.50;;;20.10;99.90;;;;;;4388854;32;20151;-75
2023/09/01 11:01:31;;;;;;;0.50;0.50;;;20.20;99.90;;;;;;4392304;32;20106;-75
2023/09/01 11:04:19;;;;;;;1.20;0.90;;;20.20;99.90;;;;;;4398865;32;20062;-76
2023/09/01 11:07:02;;;;;;;1.30;0.50;;;20.20;99.90;;;;;;4371877;32;20203;-75
2023/09/01 11:09:39;;;;;;;0.40;0.40;;;20.40;99.90;;;;;;4378239;32;20089;-75
2023/09/01 11:12:06;;;;;;;0.30;0.30;;;20.80;99.90;;;;;;4388857;32;20827;-75
2023/09/01 11:14:34;;;;;;;0.20;0.20;;;20.90;99.90;;;;;;4391538;32;20090;-75
2023/09/01 11:17:01;;;;;;;0.57;0.57;;;21.20;99.90;;;;;;4389123;32;20476;-75
2023/09/01 11:19:27;;;;;;;0.20;0.20;;;21.10;99.90;;;;;;4382364;32;21885;-75
2023/09/01 11:21:52;;;;;;;0.40;0.40;;;21.10;99.90;;;;;;4390902;32;20552;-75
2023/09/01 11:24:21;;;;;;;0.35;0.30;;;21.20;99.90;;;;;;4387606;32;20207;-75
2023/09/01 11:26:48;;;;;;;1.05;0.40;;;21.10;99.90;;;;;;4388392;32;20090;-75
2023/09/01 11:29:14;;;;;;;0.40;0.40;;;21.20;99.90;;;;;;4390570;32;20122;-76
2023/09/01 11:31:41;;;;;;;0.30;0.30;;;21.30;99.90;;;;;;4390989;32;20334;-74
2023/09/01 11:34:07;;;;;;;0.30;0.30;;;21.30;99.90;;;;;;4388088;32;20106;-74
2023/09/01 11:36:33;;;;;;;0.20;0.20;;;21.30;99.90;;;;;;4390950;32;20066;-74
2023/09/01 11:38:59;;;;;;;0.40;0.40;;;21.20;99.90;;;;;;4397522;32;20498;-73
2023/09/01 11:41:26;;;;;;;0.30;0.30;;;21.20;99.90;;;;;;4383919;32;20732;-76
2023/09/01 11:43:54;;;;;;;0.30;0.30;;;21.20;99.90;;;;;;4387509;32;20196;-74
2023/09/01 11:46:37;;;;;;;0.20;0.20;;;21.10;99.90;;;;;;4386369;32;20298;-73
2023/09/01 11:49:04;;;;;;;0.50;0.47;;;21.10;99.90;;;;;;4393146;32;85805;-74
2023/09/01 11:51:31;;;;;;;0.77;0.50;;;21.30;99.90;;;;;;4400626;32;20097;-74
2023/09/01 11:53:57;;;;;;;0.35;0.35;;;21.70;99.90;;;;;;4388869;32;20061;-75
2023/09/01 11:56:23;;;;;;;0.20;0.20;;;22.10;99.90;;;;;;4402772;32;20156;-73
2023/09/01 11:58:50;;;;;;;0.47;0.47;;;22.20;99.90;;;;;;4402631;32;20205;-72
2023/09/01 12:01:18;;;;;;;0.10;0.10;;;22.40;99.90;;;;;;4404415;32;20113;-74
2023/09/01 12:03:45;;;;;;;2.10;0.93;;;22.70;99.90;;;;;;4402242;32;20818;-73
2023/09/01 12:06:17;;;;;;;0.13;0.13;;;22.70;99.90;;;;;;4400928;32;20070;-73
2023/09/01 12:08:43;;;;;;;0.15;0.15;;;22.60;99.90;;;;;;4397733;32;20638;-74
2023/09/01 12:11:08;;;;;;;0.32;0.30;;;22.40;99.90;;;;;;4396675;32;20195;-74
2023/09/01 12:13:34;;;;;;;0.20;0.20;;;22.50;99.90;;;;;;4404856;32;20477;-75
2023/09/01 12:16:01;;;;;;;0.30;0.20;;;22.70;99.90;;;;;;4403333;32;20172;-74
2023/09/01 12:18:30;;;;;;;0.10;0.10;;;23.00;99.90;;;;;;4404270;32;20084;-75
2023/09/01 12:20:56;;;;;;;0.22;0.22;;;23.20;99.90;;;;;;4388646;32;20073;-74
2023/09/01 12:23:31;;;;;;;0.40;0.40;;;23.70;99.90;;;;;;4396102;32;20158;-75
2023/09/01 12:25:58;;;;;;;0.37;0.37;;;23.90;99.90;;;;;;4404705;32;20438;-75
2023/09/01 12:28:26;;;;;;;0.30;0.30;;;24.20;99.90;;;;;;4397826;32;20094;-74
2023/09/01 12:30:52;;;;;;;0.43;0.43;;;24.80;99.90;;;;;;4388414;32;20657;-75
2023/09/01 12:33:18;;;;;;;0.10;0.10;;;25.00;99.80;;;;;;4388503;32;20093;-75
2023/09/01 12:35:43;;;;;;;0.20;0.20;;;25.60;99.70;;;;;;4396811;32;20516;-74
2023/09/01 12:38:09;;;;;;;0.13;0.13;;;25.60;98.30;;;;;;4410212;32;20093;-75
2023/09/01 12:40:34;;;;;;;0.43;0.43;;;25.90;97.80;;;;;;4410444;32;20093;-75
2023/09/01 12:43:02;;;;;;;0.20;0.15;;;25.80;97.60;;;;;;4410162;32;20848;-75
2023/09/01 12:45:30;;;;;;;0.22;0.22;;;25.50;98.20;;;;;;4414517;32;21175;-75
2023/09/01 12:47:55;;;;;;;0.17;0.17;;;25.20;98.30;;;;;;4412707;32;20062;-75